Time;durP1;ratioP1;P1;durP2;ratioP2;P2;SDS_P1;SDS_P2;PMS_P1;PMS_P2;Temp;Humidity;BMP_temperature;BMP_pressure;BME280_temperature;BME280_humidity;BME280_pressure;Samples;Min_cycle;Max_cycle;Signal;HPM_P1;HPM_P2
2023/08/10 00:02:08;;;;;;;6.83;4.37;;;;;;;;;;5035731;28;20194;-64
2023/08/10 00:04:34;;;;;;;11.63;4.07;;;;;;;;;;5035702;28;20199;-64
2023/08/10 00:07:00;;;;;;;11.37;4.57;;;;;;;;;;5017854;28;20179;-64
2023/08/10 00:09:26;;;;;;;5.47;4.23;;;;;;;;;;5035666;28;20183;-64
2023/08/10 00:11:52;;;;;;;11.23;4.30;;;;;;;;;;5035668;28;20233;-64
2023/08/10 00:14:18;;;;;;;6.63;4.33;;;;;;;;;;5035337;28;20221;-64
2023/08/10 00:16:44;;;;;;;8.73;4.63;;;;;;;;;;5017769;28;20186;-64
2023/08/10 00:19:10;;;;;;;9.43;3.80;;;;;;;;;;5017797;28;20179;-64
2023/08/10 00:21:36;;;;;;;6.97;3.90;;;;;;;;;;5035943;28;20250;-63
2023/08/10 00:24:02;;;;;;;6.07;3.80;;;;;;;;;;5036021;28;20574;-64
2023/08/10 00:26:28;;;;;;;6.13;4.20;;;;;;;;;;5035696;28;20258;-64
2023/08/10 00:28:54;;;;;;;6.13;3.77;;;;;;;;;;5035724;28;20186;-65
2023/08/10 00:31:20;;;;;;;5.90;3.80;;;;;;;;;;5035267;28;20186;-64
2023/08/10 00:33:46;;;;;;;9.83;4.10;;;;;;;;;;5017742;28;20222;-64
2023/08/10 00:36:12;;;;;;;8.43;4.53;;;;;;;;;;5035839;28;20274;-64
2023/08/10 00:38:38;;;;;;;10.40;4.10;;;;;;;;;;5035555;28;20203;-64
2023/08/10 00:41:04;;;;;;;7.50;4.30;;;;;;;;;;5039738;28;20641;-64
2023/08/10 00:43:31;;;;;;;6.17;4.00;;;;;;;;;;5028524;28;20217;-64
2023/08/10 00:45:58;;;;;;;8.23;3.57;;;;;;;;;;5027228;28;20250;-64
2023/08/10 00:48:25;;;;;;;9.40;3.73;;;;;;;;;;5038793;28;20175;-64
2023/08/10 00:50:51;;;;;;;6.50;4.30;;;;;;;;;;5036597;28;20763;-64
2023/08/10 00:53:17;;;;;;;10.33;4.70;;;;;;;;;;5039096;28;20207;-64
2023/08/10 00:55:44;;;;;;;4.37;3.60;;;;;;;;;;5038396;28;20187;-64
2023/08/10 00:58:11;;;;;;;6.60;3.80;;;;;;;;;;5019490;28;20649;-64
2023/08/10 01:00:38;;;;;;;14.20;3.80;;;;;;;;;;5019916;28;20596;-64
2023/08/10 01:03:04;;;;;;;6.43;3.70;;;;;;;;;;5020634;28;20207;-64
2023/08/10 01:05:33;;;;;;;9.73;4.47;;;;;;;;;;5037515;28;20558;-63
2023/08/10 01:08:07;;;;;;;7.20;3.43;;;;;;;;;;5020309;28;20586;-64
2023/08/10 01:10:55;;;;;;;7.43;3.83;;;;;;;;;;5037898;28;20176;-64
2023/08/10 01:13:22;;;;;;;8.60;3.93;;;;;;;;;;5019465;28;20223;-63
2023/08/10 01:15:50;;;;;;;8.53;4.20;;;;;;;;;;5019373;28;20179;-64
2023/08/10 01:18:19;;;;;;;7.03;4.00;;;;;;;;;;5036913;28;20176;-63
2023/08/10 01:20:46;;;;;;;6.93;3.50;;;;;;;;;;5036289;28;20175;-64
2023/08/10 01:23:18;;;;;;;7.30;4.10;;;;;;;;;;5016604;28;20575;-65
2023/08/10 01:25:44;;;;;;;7.67;3.90;;;;;;;;;;5034740;28;20179;-64
2023/08/10 01:28:12;;;;;;;5.80;3.53;;;;;;;;;;5034520;28;20309;-64
2023/08/10 01:30:38;;;;;;;6.97;3.60;;;;;;;;;;5034431;28;20175;-64
2023/08/10 01:33:04;;;;;;;10.53;3.90;;;;;;;;;;5016233;28;20242;-64
2023/08/10 01:35:30;;;;;;;10.43;4.00;;;;;;;;;;5034060;28;20264;-64
2023/08/10 01:37:56;;;;;;;5.80;3.63;;;;;;;;;;5034049;28;20274;-65
2023/08/10 01:40:22;;;;;;;6.37;3.40;;;;;;;;;;5033892;28;20195;-64
2023/08/10 01:42:48;;;;;;;6.50;3.80;;;;;;;;;;5016217;28;20186;-64
2023/08/10 01:45:14;;;;;;;8.03;4.00;;;;;;;;;;5033898;28;20558;-64
2023/08/10 01:47:55;;;;;;;6.37;3.70;;;;;;;;;;5034290;28;20187;-64
2023/08/10 01:50:23;;;;;;;11.03;3.80;;;;;;;;;;5015755;28;20672;-64
2023/08/10 01:52:55;;;;;;;6.50;3.70;;;;;;;;;;5034106;28;20202;-63
2023/08/10 01:55:21;;;;;;;8.30;3.40;;;;;;;;;;5015925;28;20217;-63
2023/08/10 01:57:47;;;;;;;7.67;3.70;;;;;;;;;;5033876;28;20188;-65
2023/08/10 02:00:13;;;;;;;9.93;3.70;;;;;;;;;;5016060;28;20182;-63
2023/08/10 02:02:40;;;;;;;8.57;4.00;;;;;;;;;;5033505;28;20594;-63
2023/08/10 02:05:06;;;;;;;5.77;3.40;;;;;;;;;;5033981;28;20605;-64
2023/08/10 02:07:32;;;;;;;9.70;3.60;;;;;;;;;;5033176;28;20183;-64
2023/08/10 02:09:59;;;;;;;10.47;3.47;;;;;;;;;;5015587;28;20175;-64
2023/08/10 02:12:25;;;;;;;11.53;4.00;;;;;;;;;;5015528;28;20248;-64
2023/08/10 02:14:51;;;;;;;8.90;3.90;;;;;;;;;;5015378;28;20234;-64
2023/08/10 02:17:17;;;;;;;9.77;3.63;;;;;;;;;;5033278;28;20175;-64
2023/08/10 02:19:43;;;;;;;6.17;3.53;;;;;;;;;;5015398;28;20179;-64
2023/08/10 02:22:09;;;;;;;7.37;3.73;;;;;;;;;;5033185;28;20265;-63
2023/08/10 02:24:35;;;;;;;4.87;3.37;;;;;;;;;;5033270;28;20661;-63
2023/08/10 02:27:02;;;;;;;5.70;3.53;;;;;;;;;;5015277;28;20187;-63
2023/08/10 02:29:28;;;;;;;7.53;3.37;;;;;;;;;;5015406;28;20270;-64
2023/08/10 02:31:54;;;;;;;8.83;3.40;;;;;;;;;;5032861;28;20206;-65
2023/08/10 02:34:20;;;;;;;10.93;3.87;;;;;;;;;;5033031;28;20248;-64
2023/08/10 02:36:46;;;;;;;5.63;3.97;;;;;;;;;;5015310;28;20199;-64
2023/08/10 02:39:12;;;;;;;6.00;3.90;;;;;;;;;;5033184;28;20637;-64
2023/08/10 02:41:38;;;;;;;5.97;3.67;;;;;;;;;;5015331;28;20183;-64
2023/08/10 02:44:04;;;;;;;6.87;3.50;;;;;;;;;;5015481;28;20245;-63
2023/08/10 02:46:30;;;;;;;9.43;4.77;;;;;;;;;;5033169;28;20561;-64
2023/08/10 02:48:56;;;;;;;12.90;4.10;;;;;;;;;;5033207;28;20683;-65
2023/08/10 02:51:22;;;;;;;12.50;3.97;;;;;;;;;;5033377;28;20187;-64
2023/08/10 02:53:48;;;;;;;9.23;3.43;;;;;;;;;;5032768;28;20215;-65
2023/08/10 02:56:14;;;;;;;8.67;4.17;;;;;;;;;;5032913;28;20222;-64
2023/08/10 02:58:40;;;;;;;10.30;3.93;;;;;;;;;;5033558;28;20241;-64
2023/08/10 03:01:07;;;;;;;6.57;3.70;;;;;;;;;;5033611;28;20649;-64
2023/08/10 03:03:33;;;;;;;7.23;3.83;;;;;;;;;;5019058;28;20208;-65
2023/08/10 03:05:59;;;;;;;5.53;4.00;;;;;;;;;;5036899;28;20178;-64
2023/08/10 03:08:25;;;;;;;5.77;3.90;;;;;;;;;;5036933;28;20183;-63
2023/08/10 03:10:51;;;;;;;7.57;4.00;;;;;;;;;;5037350;28;20179;-63
2023/08/10 03:13:17;;;;;;;8.57;4.63;;;;;;;;;;5043074;22;20223;-70
2023/08/10 03:15:43;;;;;;;7.10;3.80;;;;;;;;;;5055912;28;20206;-70
2023/08/10 03:18:09;;;;;;;9.63;3.60;;;;;;;;;;5038495;28;20189;-70
2023/08/10 03:20:35;;;;;;;10.10;4.33;;;;;;;;;;5056154;28;20239;-69
2023/08/10 03:23:01;;;;;;;9.37;3.77;;;;;;;;;;5038308;28;20289;-70
2023/08/10 03:25:27;;;;;;;8.93;4.07;;;;;;;;;;5056139;28;20249;-70
2023/08/10 03:27:53;;;;;;;8.60;4.07;;;;;;;;;;5056234;28;20175;-70
2023/08/10 03:30:19;;;;;;;5.30;3.60;;;;;;;;;;5056030;28;20193;-70
2023/08/10 03:32:46;;;;;;;4.37;3.97;;;;;;;;;;5056065;28;20206;-70
2023/08/10 03:35:13;;;;;;;9.57;3.83;;;;;;;;;;5055999;28;20197;-70
2023/08/10 03:37:39;;;;;;;8.07;4.20;;;;;;;;;;5055994;28;20692;-69
2023/08/10 03:40:06;;;;;;;7.20;4.10;;;;;;;;;;5038111;28;20213;-69
2023/08/10 03:42:32;;;;;;;11.07;4.70;;;;;;;;;;5056591;28;20224;-70
2023/08/10 03:44:58;;;;;;;7.03;4.03;;;;;;;;;;5055757;28;20198;-69
2023/08/10 03:47:24;;;;;;;9.00;4.30;;;;;;;;;;5056241;28;20189;-69
2023/08/10 03:49:50;;;;;;;8.47;4.63;;;;;;;;;;5055900;28;20178;-69
2023/08/10 03:52:16;;;;;;;9.37;4.47;;;;;;;;;;5055752;28;20195;-69
2023/08/10 03:54:42;;;;;;;6.60;3.97;;;;;;;;;;5055686;28;20281;-70
2023/08/10 03:57:08;;;;;;;9.53;4.57;;;;;;;;;;5037680;28;20183;-69
2023/08/10 03:59:34;;;;;;;10.10;4.23;;;;;;;;;;5037648;28;20186;-70
2023/08/10 04:02:00;;;;;;;7.37;4.23;;;;;;;;;;5055570;28;20182;-70
2023/08/10 04:04:26;;;;;;;8.90;4.43;;;;;;;;;;5055448;28;20235;-70
2023/08/10 04:06:52;;;;;;;6.63;4.00;;;;;;;;;;5055881;28;20315;-70
2023/08/10 04:09:18;;;;;;;15.93;4.73;;;;;;;;;;5055498;28;20178;-70
2023/08/10 04:11:44;;;;;;;6.97;4.20;;;;;;;;;;5055421;28;20256;-70
2023/08/10 04:14:10;;;;;;;6.80;4.33;;;;;;;;;;5054942;28;20232;-70
2023/08/10 04:16:36;;;;;;;8.30;4.33;;;;;;;;;;5037387;28;20178;-70
2023/08/10 04:19:02;;;;;;;8.83;4.63;;;;;;;;;;5038244;28;20179;-69
2023/08/10 04:21:28;;;;;;;6.43;3.77;;;;;;;;;;5041439;28;20184;-69
2023/08/10 04:23:54;;;;;;;8.13;4.70;;;;;;;;;;5040622;28;20217;-69
2023/08/10 04:26:20;;;;;;;8.70;4.33;;;;;;;;;;5057736;28;20667;-69
2023/08/10 04:28:46;;;;;;;9.83;4.90;;;;;;;;;;5038964;28;20632;-69
2023/08/10 04:31:12;;;;;;;6.73;4.43;;;;;;;;;;5056334;28;20545;-69
2023/08/10 04:33:38;;;;;;;6.87;4.47;;;;;;;;;;5039067;28;20212;-69
2023/08/10 04:36:05;;;;;;;14.77;5.00;;;;;;;;;;5059946;28;20183;-69
2023/08/10 04:38:30;;;;;;;11.63;4.93;;;;;;;;;;5057712;28;20196;-69
2023/08/10 04:40:56;;;;;;;8.83;4.93;;;;;;;;;;5065386;28;20691;-69
2023/08/10 04:43:22;;;;;;;7.40;4.67;;;;;;;;;;5038598;28;20625;-69
2023/08/10 04:45:48;;;;;;;8.07;4.80;;;;;;;;;;5055280;28;20636;-70
2023/08/10 04:48:15;;;;;;;12.43;4.63;;;;;;;;;;5054914;28;20550;-70
2023/08/10 04:50:41;;;;;;;9.80;4.73;;;;;;;;;;5036770;28;20187;-70
2023/08/10 04:53:07;;;;;;;9.70;4.60;;;;;;;;;;5036741;28;20205;-70
2023/08/10 04:55:33;;;;;;;6.70;4.80;;;;;;;;;;5054462;28;20205;-70
2023/08/10 04:57:59;;;;;;;10.03;4.90;;;;;;;;;;5036631;28;20190;-70
2023/08/10 05:00:25;;;;;;;12.67;5.67;;;;;;;;;;5036580;28;20269;-70
2023/08/10 05:02:51;;;;;;;8.93;5.07;;;;;;;;;;5054656;28;20185;-70
2023/08/10 05:05:18;;;;;;;13.63;5.23;;;;;;;;;;5054297;28;20263;-69
2023/08/10 05:07:46;;;;;;;14.90;5.50;;;;;;;;;;5054529;28;20216;-70
2023/08/10 05:10:12;;;;;;;15.80;6.20;;;;;;;;;;5054588;28;20175;-70
2023/08/10 05:12:38;;;;;;;18.20;6.43;;;;;;;;;;5036308;28;20230;-69
2023/08/10 05:15:05;;;;;;;13.37;5.13;;;;;;;;;;5036321;28;20252;-70
2023/08/10 05:17:31;;;;;;;15.70;6.60;;;;;;;;;;5054220;28;20556;-69
2023/08/10 05:19:57;;;;;;;22.20;5.90;;;;;;;;;;5054181;28;20217;-70
2023/08/10 05:22:23;;;;;;;11.63;5.00;;;;;;;;;;5036204;28;20190;-70
2023/08/10 05:24:49;;;;;;;12.27;6.03;;;;;;;;;;5035696;28;20240;-70
2023/08/10 05:27:16;;;;;;;15.07;6.20;;;;;;;;;;5055416;28;20640;-70
2023/08/10 05:29:42;;;;;;;10.67;5.80;;;;;;;;;;5054447;28;20178;-70
2023/08/10 05:32:08;;;;;;;11.53;5.80;;;;;;;;;;5054056;28;20179;-69
2023/08/10 05:34:34;;;;;;;9.53;5.93;;;;;;;;;;5053946;28;20544;-70
2023/08/10 05:37:00;;;;;;;10.70;6.33;;;;;;;;;;5035984;28;20256;-70
2023/08/10 05:39:25;;;;;;;13.50;5.83;;;;;;;;;;5036064;28;20220;-70
2023/08/10 05:41:52;;;;;;;10.77;4.70;;;;;;;;;;5035975;28;20181;-70
2023/08/10 05:44:18;;;;;;;12.27;5.60;;;;;;;;;;5054109;28;20194;-70
2023/08/10 05:46:44;;;;;;;5.60;5.00;;;;;;;;;;5036423;28;20579;-70
2023/08/10 05:49:10;;;;;;;10.80;5.17;;;;;;;;;;5053578;28;20257;-70
2023/08/10 05:51:36;;;;;;;9.13;5.17;;;;;;;;;;5035891;28;20178;-70
2023/08/10 05:54:02;;;;;;;10.40;5.10;;;;;;;;;;5053539;28;20214;-70
2023/08/10 05:56:28;;;;;;;12.90;5.50;;;;;;;;;;5035550;28;20291;-70
2023/08/10 05:58:54;;;;;;;13.17;5.53;;;;;;;;;;5053553;28;20672;-70
2023/08/10 06:01:21;;;;;;;9.30;5.63;;;;;;;;;;5053399;28;20178;-70
2023/08/10 06:03:47;;;;;;;11.03;7.03;;;;;;;;;;5035661;28;20237;-70
2023/08/10 06:06:13;;;;;;;14.43;6.10;;;;;;;;;;5035532;28;20237;-70
2023/08/10 06:08:39;;;;;;;8.80;5.50;;;;;;;;;;5053956;28;20652;-70
2023/08/10 06:11:05;;;;;;;10.80;5.90;;;;;;;;;;5035594;28;20664;-70
2023/08/10 06:13:31;;;;;;;10.63;6.30;;;;;;;;;;5053181;28;20205;-69
2023/08/10 06:15:57;;;;;;;15.13;6.33;;;;;;;;;;5035299;28;20201;-70
2023/08/10 06:18:23;;;;;;;11.23;6.43;;;;;;;;;;5053156;28;20179;-69
2023/08/10 06:20:49;;;;;;;10.50;5.83;;;;;;;;;;5035894;28;20186;-69
2023/08/10 06:23:16;;;;;;;9.87;5.70;;;;;;;;;;5035119;28;20189;-70
2023/08/10 06:25:41;;;;;;;11.57;5.40;;;;;;;;;;5053623;28;20174;-70
2023/08/10 06:28:07;;;;;;;9.87;5.47;;;;;;;;;;5053059;28;20179;-70
2023/08/10 06:30:34;;;;;;;10.07;5.27;;;;;;;;;;5035198;28;20213;-70
2023/08/10 06:33:00;;;;;;;9.30;5.50;;;;;;;;;;5035061;28;20640;-70
2023/08/10 06:35:27;;;;;;;12.90;5.67;;;;;;;;;;5035016;28;20202;-69
2023/08/10 06:37:53;;;;;;;12.17;6.43;;;;;;;;;;5055992;28;20655;-69
2023/08/10 06:40:20;;;;;;;13.90;6.47;;;;;;;;;;5057034;28;20253;-70
2023/08/10 06:42:46;;;;;;;9.77;6.20;;;;;;;;;;5039150;28;20205;-70
2023/08/10 06:45:12;;;;;;;11.83;6.07;;;;;;;;;;5039224;28;20759;-69
2023/08/10 06:47:38;;;;;;;16.90;6.07;;;;;;;;;;5057342;28;20232;-69
2023/08/10 06:50:05;;;;;;;9.33;5.50;;;;;;;;;;5038917;28;20269;-69
2023/08/10 06:52:31;;;;;;;12.50;5.60;;;;;;;;;;5038897;28;20198;-69
2023/08/10 06:54:57;;;;;;;9.87;5.27;;;;;;;;;;5056765;28;20593;-69
2023/08/10 06:57:23;;;;;;;13.03;5.03;;;;;;;;;;5056764;28;20182;-69
2023/08/10 06:59:49;;;;;;;13.17;5.23;;;;;;;;;;5057047;28;20236;-69
2023/08/10 07:02:16;;;;;;;7.53;4.47;;;;;;;;;;5038777;28;20197;-69
2023/08/10 07:04:44;;;;;;;9.40;5.10;;;;;;;;;;5056542;28;20198;-69
2023/08/10 07:07:11;;;;;;;8.13;4.50;;;;;;;;;;5056901;28;20249;-69
2023/08/10 07:09:37;;;;;;;8.70;3.93;;;;;;;;;;5038893;28;20273;-69
2023/08/10 07:12:03;;;;;;;12.63;3.83;;;;;;;;;;5056712;28;20177;-69
2023/08/10 07:14:29;;;;;;;10.40;3.80;;;;;;;;;;5057222;28;20237;-69
2023/08/10 07:16:55;;;;;;;9.17;3.77;;;;;;;;;;5056367;28;20178;-70
2023/08/10 07:19:22;;;;;;;9.00;4.00;;;;;;;;;;5038484;28;20178;-70
2023/08/10 07:21:48;;;;;;;7.07;3.83;;;;;;;;;;5056495;28;20186;-70
2023/08/10 07:24:14;;;;;;;7.40;3.63;;;;;;;;;;5038491;28;20252;-70
2023/08/10 07:26:40;;;;;;;10.30;3.80;;;;;;;;;;5038590;28;20233;-70
2023/08/10 07:29:06;;;;;;;9.90;3.97;;;;;;;;;;5038435;28;20182;-70
2023/08/10 07:31:32;;;;;;;11.87;4.33;;;;;;;;;;5038375;28;20210;-69
2023/08/10 07:33:59;;;;;;;10.20;3.90;;;;;;;;;;5056419;28;20245;-70
2023/08/10 07:36:25;;;;;;;8.93;3.67;;;;;;;;;;5038736;28;20240;-69
2023/08/10 07:38:51;;;;;;;8.37;3.33;;;;;;;;;;5042638;28;20178;-69
2023/08/10 07:41:17;;;;;;;10.60;3.47;;;;;;;;;;5059732;28;20179;-69
2023/08/10 07:43:43;;;;;;;6.97;2.77;;;;;;;;;;5058578;28;20256;-69
2023/08/10 07:46:10;;;;;;;5.60;2.70;;;;;;;;;;5056174;28;20201;-69
2023/08/10 07:48:36;;;;;;;7.17;3.17;;;;;;;;;;5055909;28;20178;-69
2023/08/10 07:51:03;;;;;;;6.07;2.70;;;;;;;;;;5056468;28;20542;-69
2023/08/10 07:53:29;;;;;;;5.83;3.23;;;;;;;;;;5037965;28;20600;-69
2023/08/10 07:55:55;;;;;;;5.77;2.80;;;;;;;;;;5055881;28;20167;-69
2023/08/10 07:58:21;;;;;;;8.27;2.70;;;;;;;;;;5055905;28;20179;-69
2023/08/10 08:00:47;;;;;;;6.17;2.40;;;;;;;;;;5038015;28;20174;-69
2023/08/10 08:03:13;;;;;;;8.57;2.70;;;;;;;;;;5055927;28;20187;-70
2023/08/10 08:05:40;;;;;;;5.33;2.37;;;;;;;;;;5038223;28;20182;-70
2023/08/10 08:08:06;;;;;;;3.50;2.10;;;;;;;;;;5038966;28;20657;-69
2023/08/10 08:10:33;;;;;;;4.17;2.03;;;;;;;;;;5056060;28;20261;-70
2023/08/10 08:12:59;;;;;;;8.53;2.50;;;;;;;;;;5055546;28;20209;-70
2023/08/10 08:15:25;;;;;;;7.63;2.50;;;;;;;;;;5037330;28;20581;-70
2023/08/10 08:18:10;;;;;;;7.73;2.70;;;;;;;;;;5055462;28;20175;-70
2023/08/10 08:20:36;;;;;;;7.70;2.33;;;;;;;;;;5037377;28;20640;-70
2023/08/10 08:23:02;;;;;;;6.73;2.40;;;;;;;;;;5055244;28;20179;-70
2023/08/10 08:25:28;;;;;;;4.27;2.13;;;;;;;;;;5037353;28;20221;-70
2023/08/10 08:27:54;;;;;;;3.97;2.30;;;;;;;;;;5037328;28;20191;-70
2023/08/10 08:30:20;;;;;;;5.47;2.47;;;;;;;;;;5055128;28;20240;-70
2023/08/10 08:32:46;;;;;;;8.27;2.83;;;;;;;;;;5037168;28;20332;-70
2023/08/10 08:35:12;;;;;;;6.20;2.73;;;;;;;;;;5037248;28;20265;-70
2023/08/10 08:37:38;;;;;;;5.90;2.50;;;;;;;;;;5055905;28;20206;-69
2023/08/10 08:40:04;;;;;;;4.97;2.30;;;;;;;;;;5055091;28;20550;-70
2023/08/10 08:42:30;;;;;;;8.63;2.87;;;;;;;;;;5037565;28;20558;-69
2023/08/10 08:44:57;;;;;;;9.10;2.60;;;;;;;;;;5056101;28;20195;-71
2023/08/10 08:47:23;;;;;;;3.40;2.60;;;;;;;;;;5055419;28;20178;-69
2023/08/10 08:49:49;;;;;;;4.80;2.20;;;;;;;;;;5055065;28;20554;-69
2023/08/10 08:52:15;;;;;;;8.23;2.47;;;;;;;;;;5055135;28;20218;-70
2023/08/10 08:54:41;;;;;;;4.97;2.20;;;;;;;;;;5037025;28;20233;-70
2023/08/10 08:57:07;;;;;;;5.20;2.50;;;;;;;;;;5055351;28;20629;-70
2023/08/10 08:59:32;;;;;;;6.10;2.70;;;;;;;;;;5036570;28;20552;-69
2023/08/10 09:01:59;;;;;;;5.67;2.47;;;;;;;;;;5055061;28;20549;-69
2023/08/10 09:04:25;;;;;;;4.13;2.00;;;;;;;;;;5036552;28;20209;-70
2023/08/10 09:06:51;;;;;;;4.33;2.33;;;;;;;;;;5054541;28;20182;-70
2023/08/10 09:09:17;;;;;;;6.63;2.27;;;;;;;;;;5036628;28;20232;-69
2023/08/10 09:11:43;;;;;;;6.70;2.40;;;;;;;;;;5054360;28;20186;-69
2023/08/10 09:14:09;;;;;;;8.63;2.30;;;;;;;;;;5054095;28;20218;-70
2023/08/10 09:16:39;;;;;;;7.73;2.50;;;;;;;;;;5045771;22;20237;-64
2023/08/10 09:19:10;;;;;;;5.80;2.73;;;;;;;;;;5034258;28;20172;-65
2023/08/10 09:21:36;;;;;;;11.13;2.97;;;;;;;;;;5034559;28;20179;-64
2023/08/10 09:24:02;;;;;;;6.50;2.47;;;;;;;;;;5034696;28;20683;-64
2023/08/10 09:26:28;;;;;;;5.90;2.33;;;;;;;;;;5034353;28;20205;-64
2023/08/10 09:28:55;;;;;;;6.13;2.70;;;;;;;;;;5034426;28;20183;-64
2023/08/10 09:31:25;;;;;;;5.83;2.60;;;;;;;;;;5034380;28;20204;-64
2023/08/10 09:33:55;;;;;;;7.00;2.77;;;;;;;;;;5034902;28;20203;-64
2023/08/10 09:36:25;;;;;;;5.80;2.47;;;;;;;;;;5016441;28;20199;-65
2023/08/10 09:38:52;;;;;;;4.47;2.20;;;;;;;;;;5016162;28;20190;-66
2023/08/10 09:41:20;;;;;;;7.93;2.73;;;;;;;;;;5016272;28;20261;-65
2023/08/10 09:43:46;;;;;;;7.47;2.80;;;;;;;;;;5033848;28;20175;-66
2023/08/10 09:46:13;;;;;;;7.03;2.70;;;;;;;;;;5016181;28;20281;-65
2023/08/10 09:48:40;;;;;;;6.07;2.50;;;;;;;;;;5016139;28;20237;-66
2023/08/10 09:51:08;;;;;;;6.03;2.40;;;;;;;;;;5034400;28;20218;-64
2023/08/10 09:53:34;;;;;;;4.23;2.40;;;;;;;;;;5033722;28;20203;-65
2023/08/10 09:56:01;;;;;;;7.43;3.20;;;;;;;;;;5015890;28;20298;-65
2023/08/10 09:58:28;;;;;;;3.80;2.40;;;;;;;;;;5015862;28;20219;-64
2023/08/10 10:00:54;;;;;;;4.47;2.70;;;;;;;;;;5033666;28;20645;-65
2023/08/10 10:03:20;;;;;;;7.07;2.60;;;;;;;;;;5015924;28;20183;-66
2023/08/10 10:05:48;;;;;;;3.67;2.33;;;;;;;;;;5015674;28;20199;-65
2023/08/10 10:08:15;;;;;;;5.93;2.90;;;;;;;;;;5033960;28;20254;-64
2023/08/10 10:10:42;;;;;;;6.23;2.67;;;;;;;;;;5033475;28;20197;-64
2023/08/10 10:13:12;;;;;;;6.27;2.80;;;;;;;;;;5015670;28;20206;-64
2023/08/10 10:15:42;;;;;;;8.37;3.10;;;;;;;;;;5033612;28;20206;-64
2023/08/10 10:18:09;;;;;;;6.60;2.60;;;;;;;;;;5033379;28;20175;-64
2023/08/10 10:20:38;;;;;;;5.97;2.20;;;;;;;;;;5015846;28;20554;-63
2023/08/10 10:23:04;;;;;;;7.53;4.80;;;;;;;;;;5015653;28;20193;-64
2023/08/10 10:25:30;;;;;;;7.97;2.40;;;;;;;;;;5033248;28;20202;-64
2023/08/10 10:27:56;;;;;;;4.87;2.23;;;;;;;;;;5015506;28;20187;-64
2023/08/10 10:30:23;;;;;;;8.87;2.87;;;;;;;;;;5033374;28;20179;-64
2023/08/10 10:32:51;;;;;;;4.80;2.70;;;;;;;;;;5033564;28;20195;-64
2023/08/10 10:35:23;;;;;;;6.70;2.70;;;;;;;;;;5033183;28;20203;-64
2023/08/10 10:37:56;;;;;;;5.10;2.77;;;;;;;;;;5035255;28;20202;-63
2023/08/10 10:40:23;;;;;;;4.57;2.60;;;;;;;;;;5037615;28;20245;-63
2023/08/10 10:43:01;;;;;;;4.83;2.70;;;;;;;;;;5018691;28;20183;-64
2023/08/10 10:45:27;;;;;;;5.23;2.73;;;;;;;;;;5015595;28;20559;-64
2023/08/10 10:47:55;;;;;;;5.50;2.70;;;;;;;;;;5015546;28;20183;-63
2023/08/10 10:50:23;;;;;;;5.67;2.83;;;;;;;;;;5033238;28;20183;-64
2023/08/10 10:52:53;;;;;;;4.87;3.00;;;;;;;;;;5033734;28;20210;-63
2023/08/10 10:55:19;;;;;;;5.07;2.77;;;;;;;;;;5033830;28;20282;-63
2023/08/10 10:57:47;;;;;;;7.27;3.27;;;;;;;;;;5016090;28;20183;-63
2023/08/10 11:00:14;;;;;;;6.33;2.93;;;;;;;;;;5033611;28;20171;-64
2023/08/10 11:02:40;;;;;;;7.20;3.00;;;;;;;;;;5034003;28;20183;-64
2023/08/10 11:05:16;;;;;;;3.73;2.47;;;;;;;;;;5015969;28;20245;-64
2023/08/10 11:07:47;;;;;;;8.10;2.90;;;;;;;;;;5033644;28;20175;-64
2023/08/10 11:10:13;;;;;;;9.57;3.20;;;;;;;;;;5016022;28;20187;-65
2023/08/10 11:12:41;;;;;;;10.00;3.00;;;;;;;;;;5033877;28;20266;-63
2023/08/10 11:15:08;;;;;;;7.47;3.20;;;;;;;;;;5015608;28;20286;-64
2023/08/10 11:17:34;;;;;;;8.10;3.13;;;;;;;;;;5016136;28;20170;-64
2023/08/10 11:20:00;;;;;;;5.80;3.40;;;;;;;;;;5015569;28;20673;-64
2023/08/10 11:22:27;;;;;;;6.70;3.13;;;;;;;;;;5015644;28;20282;-64
2023/08/10 11:24:53;;;;;;;6.43;3.37;;;;;;;;;;5036580;28;20265;-65
2023/08/10 11:27:19;;;;;;;12.50;3.13;;;;;;;;;;5036475;28;20213;-65
2023/08/10 11:29:45;;;;;;;4.17;2.80;;;;;;;;;;5036384;28;20210;-65
2023/08/10 11:32:11;;;;;;;4.23;2.70;;;;;;;;;;5036394;28;20258;-65
2023/08/10 11:34:38;;;;;;;3.67;2.70;;;;;;;;;;5036569;28;20685;-65
2023/08/10 11:37:04;;;;;;;3.93;2.40;;;;;;;;;;5036338;28;20198;-64
2023/08/10 11:39:30;;;;;;;3.30;2.70;;;;;;;;;;5036255;28;20710;-65
2023/08/10 11:41:56;;;;;;;5.57;2.97;;;;;;;;;;5036492;28;20179;-65
2023/08/10 11:44:23;;;;;;;4.13;2.30;;;;;;;;;;5018404;28;20187;-64
2023/08/10 11:46:49;;;;;;;5.03;3.10;;;;;;;;;;5035987;28;20199;-65
2023/08/10 11:49:15;;;;;;;4.70;3.00;;;;;;;;;;5018497;28;20183;-64
2023/08/10 11:51:41;;;;;;;4.47;3.10;;;;;;;;;;5018283;28;20187;-64
2023/08/10 11:54:11;;;;;;;6.50;2.47;;;;;;;;;;5036024;28;20199;-65
2023/08/10 11:56:47;;;;;;;7.13;2.60;;;;;;;;;;5036186;28;20183;-65
2023/08/10 11:59:14;;;;;;;4.13;2.60;;;;;;;;;;5035887;28;20182;-65
2023/08/10 12:01:53;;;;;;;4.23;2.60;;;;;;;;;;5036405;28;20176;-64
2023/08/10 12:04:19;;;;;;;6.07;2.70;;;;;;;;;;5035824;28;20175;-65
2023/08/10 12:06:45;;;;;;;3.33;2.63;;;;;;;;;;5018069;28;20665;-65
2023/08/10 12:09:12;;;;;;;4.83;2.70;;;;;;;;;;5017943;28;20183;-64
2023/08/10 12:11:39;;;;;;;3.77;2.67;;;;;;;;;;5035661;28;20715;-64
2023/08/10 12:14:06;;;;;;;3.30;2.67;;;;;;;;;;5036127;28;20230;-65
2023/08/10 12:16:32;;;;;;;7.60;3.20;;;;;;;;;;5017767;28;20246;-65
2023/08/10 12:18:58;;;;;;;5.03;2.70;;;;;;;;;;5017807;28;20179;-65
2023/08/10 12:21:24;;;;;;;5.30;3.00;;;;;;;;;;5017830;28;20565;-64
2023/08/10 12:23:50;;;;;;;6.87;3.00;;;;;;;;;;5017838;28;20186;-64
2023/08/10 12:26:16;;;;;;;6.23;3.00;;;;;;;;;;5017874;28;20297;-64
2023/08/10 12:28:43;;;;;;;4.30;2.87;;;;;;;;;;5017713;28;20602;-65
2023/08/10 12:31:09;;;;;;;3.70;2.73;;;;;;;;;;5035812;28;20688;-65
2023/08/10 12:33:35;;;;;;;5.07;2.50;;;;;;;;;;5035245;28;20672;-65
2023/08/10 12:36:02;;;;;;;4.77;2.70;;;;;;;;;;5035229;28;20676;-65
2023/08/10 12:38:28;;;;;;;4.57;2.43;;;;;;;;;;5017455;28;20194;-66
2023/08/10 12:40:55;;;;;;;8.27;3.60;;;;;;;;;;5017471;28;20266;-65
2023/08/10 12:43:21;;;;;;;6.70;3.20;;;;;;;;;;5017253;28;20187;-65
2023/08/10 12:45:47;;;;;;;3.20;2.90;;;;;;;;;;5017323;28;20207;-63
2023/08/10 12:48:13;;;;;;;8.43;2.90;;;;;;;;;;5035096;28;20183;-65
2023/08/10 12:50:39;;;;;;;5.63;2.83;;;;;;;;;;5017154;28;20183;-66
2023/08/10 12:53:05;;;;;;;5.60;2.93;;;;;;;;;;5034839;28;20206;-66
2023/08/10 12:55:32;;;;;;;4.57;2.70;;;;;;;;;;5034843;28;20195;-66
2023/08/10 12:57:58;;;;;;;5.10;3.10;;;;;;;;;;5035082;28;20183;-66
2023/08/10 13:00:23;;;;;;;6.80;3.17;;;;;;;;;;5035356;28;20229;-66
2023/08/10 13:02:49;;;;;;;3.13;2.83;;;;;;;;;;5017089;28;20194;-66
2023/08/10 13:05:16;;;;;;;6.43;3.73;;;;;;;;;;5017284;28;20199;-66
2023/08/10 13:07:43;;;;;;;3.87;3.10;;;;;;;;;;5017120;28;20183;-66
2023/08/10 13:10:12;;;;;;;6.93;3.90;;;;;;;;;;5035204;28;20637;-63
2023/08/10 13:12:39;;;;;;;7.07;3.60;;;;;;;;;;5034569;28;20577;-64
2023/08/10 13:15:05;;;;;;;7.77;3.30;;;;;;;;;;5034612;28;20202;-64
2023/08/10 13:17:31;;;;;;;5.23;3.30;;;;;;;;;;5019886;28;20182;-65
2023/08/10 13:20:01;;;;;;;4.20;2.83;;;;;;;;;;5039757;28;20657;-65
2023/08/10 13:22:28;;;;;;;3.90;3.00;;;;;;;;;;5036716;28;20159;-65
2023/08/10 13:24:54;;;;;;;6.20;2.93;;;;;;;;;;5035127;28;20241;-65
2023/08/10 13:27:20;;;;;;;6.93;3.10;;;;;;;;;;5016910;28;20186;-65
2023/08/10 13:29:46;;;;;;;4.03;2.80;;;;;;;;;;5017079;28;20232;-65
2023/08/10 13:32:13;;;;;;;3.17;2.87;;;;;;;;;;5016870;28;20180;-66
2023/08/10 13:34:39;;;;;;;6.63;3.00;;;;;;;;;;5017113;28;20560;-65
2023/08/10 13:37:05;;;;;;;5.07;3.30;;;;;;;;;;5034397;28;20654;-65
2023/08/10 13:39:32;;;;;;;8.90;3.40;;;;;;;;;;5034551;28;20258;-65
2023/08/10 13:41:58;;;;;;;4.97;3.03;;;;;;;;;;5016768;28;20210;-65
2023/08/10 13:44:24;;;;;;;3.80;2.80;;;;;;;;;;5016715;28;20222;-65
2023/08/10 13:46:50;;;;;;;4.73;2.63;;;;;;;;;;5034896;28;20199;-65
2023/08/10 13:49:16;;;;;;;4.53;2.67;;;;;;;;;;5016635;28;20183;-65
2023/08/10 13:51:44;;;;;;;6.23;2.93;;;;;;;;;;5016323;28;20213;-66
2023/08/10 13:54:10;;;;;;;6.90;2.60;;;;;;;;;;5016164;28;20198;-65
2023/08/10 13:56:55;;;;;;;4.63;2.43;;;;;;;;;;5033996;28;20699;-65
2023/08/10 13:59:21;;;;;;;4.63;2.50;;;;;;;;;;5015884;28;20186;-65
2023/08/10 14:01:46;;;;;;;8.27;2.83;;;;;;;;;;5033791;28;20179;-65
2023/08/10 14:04:12;;;;;;;5.47;3.00;;;;;;;;;;5033805;28;20179;-66
2023/08/10 14:06:38;;;;;;;4.33;2.93;;;;;;;;;;5033756;28;20202;-65
2023/08/10 14:09:04;;;;;;;3.42;2.65;;;;;;;;;;5033817;28;20237;-66
2023/08/10 14:11:30;;;;;;;8.17;2.97;;;;;;;;;;5015911;28;20648;-65
2023/08/10 14:13:56;;;;;;;6.07;2.60;;;;;;;;;;5033567;28;20289;-66
2023/08/10 14:16:22;;;;;;;5.07;2.87;;;;;;;;;;5015875;28;20218;-67
2023/08/10 14:18:48;;;;;;;4.93;2.77;;;;;;;;;;5033374;28;20246;-65
2023/08/10 14:21:14;;;;;;;3.93;2.70;;;;;;;;;;5034042;28;20179;-66
2023/08/10 14:23:40;;;;;;;4.67;2.93;;;;;;;;;;5033931;28;20233;-66
2023/08/10 14:26:06;;;;;;;8.20;2.90;;;;;;;;;;5015368;28;20688;-66
2023/08/10 14:28:32;;;;;;;6.33;2.70;;;;;;;;;;5033776;28;20649;-66
2023/08/10 14:30:58;;;;;;;3.90;2.60;;;;;;;;;;5016514;28;20668;-66
2023/08/10 14:33:24;;;;;;;5.63;2.70;;;;;;;;;;5014398;28;20435;-67
2023/08/10 14:35:49;;;;;;;;;;;;;;;;;;5015806;28;20032;-66
2023/08/10 14:38:15;;;;;;;;;;;;;;;;;;5033912;28;19911;-66